Terminal Aerodrome Forecast
Issued by NWS

Home | Current Version | Previous Version | Graphics & Text | Print | Product List | Glossary On
Versions: 1 2 3 4 5 6 7 8 9 10 11 12 13 14 15 16 17 18 19 20 21
042
FTUS43 KTOP 140520
TAFMHK
TAF
KMHK 140520Z 1406/1506 02004KT P6SM OVC027
     FM141100 02004KT P6SM OVC040
     FM150300 05004KT P6SM OVC025 PROB30 1503/1506 -FZRA=

USA.gov is the U.S. government's official web portal to all federal, state and local government web resources and services.